sensor_id;sensor_type;location;lat;lon;timestamp;temperature;humidity
21612;DHT22;47005;52.292;13.452;2023-02-23T00:00:29;7.90;99.90
21612;DHT22;47005;52.292;13.452;2023-02-23T00:02:57;7.90;99.90
21612;DHT22;47005;52.292;13.452;2023-02-23T00:05:27;7.90;99.90
21612;DHT22;47005;52.292;13.452;2023-02-23T00:07:53;7.90;99.90
21612;DHT22;47005;52.292;13.452;2023-02-23T00:10:19;7.90;99.90
21612;DHT22;47005;52.292;13.452;2023-02-23T00:12:46;7.80;99.90
21612;DHT22;47005;52.292;13.452;2023-02-23T00:15:14;7.90;99.90
21612;DHT22;47005;52.292;13.452;2023-02-23T00:17:40;7.80;99.90
21612;DHT22;47005;52.292;13.452;2023-02-23T00:20:08;7.80;99.90
21612;DHT22;47005;52.292;13.452;2023-02-23T00:22:38;7.80;99.90
21612;DHT22;47005;52.292;13.452;2023-02-23T00:25:06;7.80;99.90
21612;DHT22;47005;52.292;13.452;2023-02-23T00:27:32;7.80;99.90
21612;DHT22;47005;52.292;13.452;2023-02-23T00:29:57;7.80;99.90
21612;DHT22;47005;52.292;13.452;2023-02-23T00:32:23;7.80;99.90
21612;DHT22;47005;52.292;13.452;2023-02-23T00:34:48;7.70;99.90
21612;DHT22;47005;52.292;13.452;2023-02-23T00:37:15;7.80;99.90
21612;DHT22;47005;52.292;13.452;2023-02-23T00:39:41;7.70;99.90
21612;DHT22;47005;52.292;13.452;2023-02-23T00:42:07;7.70;99.90
21612;DHT22;47005;52.292;13.452;2023-02-23T00:44:32;7.70;99.90
21612;DHT22;47005;52.292;13.452;2023-02-23T00:46:59;7.70;99.90
21612;DHT22;47005;52.292;13.452;2023-02-23T00:49:25;7.70;99.90
21612;DHT22;47005;52.292;13.452;2023-02-23T00:51:51;7.70;99.90
21612;DHT22;47005;52.292;13.452;2023-02-23T00:54:18;7.70;99.90
21612;DHT22;47005;52.292;13.452;2023-02-23T00:56:45;7.70;99.90
21612;DHT22;47005;52.292;13.452;2023-02-23T00:59:11;7.70;99.90
21612;DHT22;47005;52.292;13.452;2023-02-23T01:01:38;7.70;99.90
21612;DHT22;47005;52.292;13.452;2023-02-23T01:04:06;7.70;99.90
21612;DHT22;47005;52.292;13.452;2023-02-23T01:06:31;7.70;99.90
21612;DHT22;47005;52.292;13.452;2023-02-23T01:08:57;7.60;99.90
21612;DHT22;47005;52.292;13.452;2023-02-23T01:11:25;7.60;99.90
21612;DHT22;47005;52.292;13.452;2023-02-23T01:13:57;7.60;99.90
21612;DHT22;47005;52.292;13.452;2023-02-23T01:16:25;7.60;99.90
21612;DHT22;47005;52.292;13.452;2023-02-23T01:18:53;7.70;99.90
21612;DHT22;47005;52.292;13.452;2023-02-23T01:21:33;7.60;99.90
21612;DHT22;47005;52.292;13.452;2023-02-23T01:24:00;7.60;99.90
21612;DHT22;47005;52.292;13.452;2023-02-23T01:26:29;7.60;99.90
21612;DHT22;47005;52.292;13.452;2023-02-23T01:29:01;7.60;99.90
21612;DHT22;47005;52.292;13.452;2023-02-23T01:31:28;7.60;99.90
21612;DHT22;47005;52.292;13.452;2023-02-23T01:33:56;7.60;99.90
21612;DHT22;47005;52.292;13.452;2023-02-23T01:36:22;7.60;99.90
21612;DHT22;47005;52.292;13.452;2023-02-23T01:38:50;7.60;99.90
21612;DHT22;47005;52.292;13.452;2023-02-23T01:41:16;7.60;99.90
21612;DHT22;47005;52.292;13.452;2023-02-23T01:43:59;7.60;99.90
21612;DHT22;47005;52.292;13.452;2023-02-23T01:46:26;7.60;99.90
21612;DHT22;47005;52.292;13.452;2023-02-23T01:48:53;7.50;99.90
21612;DHT22;47005;52.292;13.452;2023-02-23T01:51:22;7.60;99.90
21612;DHT22;47005;52.292;13.452;2023-02-23T01:54:23;7.50;99.90
21612;DHT22;47005;52.292;13.452;2023-02-23T01:56:52;7.50;99.90
21612;DHT22;47005;52.292;13.452;2023-02-23T01:59:25;7.50;99.90
21612;DHT22;47005;52.292;13.452;2023-02-23T02:01:53;7.50;99.90
21612;DHT22;47005;52.292;13.452;2023-02-23T02:04:20;7.50;99.90
21612;DHT22;47005;52.292;13.452;2023-02-23T02:06:47;7.50;99.90
21612;DHT22;47005;52.292;13.452;2023-02-23T02:09:16;7.50;99.90
21612;DHT22;47005;52.292;13.452;2023-02-23T02:11:43;7.50;99.90
21612;DHT22;47005;52.292;13.452;2023-02-23T02:14:20;7.50;99.90
21612;DHT22;47005;52.292;13.452;2023-02-23T02:17:55;7.50;99.90
21612;DHT22;47005;52.292;13.452;2023-02-23T02:28:48;7.40;99.90
21612;DHT22;47005;52.292;13.452;2023-02-23T02:48:07;7.40;99.90
21612;DHT22;47005;52.292;13.452;2023-02-23T02:53:09;7.40;99.90
21612;DHT22;47005;52.292;13.452;2023-02-23T02:55:39;7.40;99.90
21612;DHT22;47005;52.292;13.452;2023-02-23T02:58:10;7.40;99.90
21612;DHT22;47005;52.292;13.452;2023-02-23T03:00:42;7.30;99.90
21612;DHT22;47005;52.292;13.452;2023-02-23T03:03:41;7.30;99.90
21612;DHT22;47005;52.292;13.452;2023-02-23T03:06:30;7.30;99.90
21612;DHT22;47005;52.292;13.452;2023-02-23T03:12:46;7.30;99.90
21612;DHT22;47005;52.292;13.452;2023-02-23T03:18:41;7.30;99.90
21612;DHT22;47005;52.292;13.452;2023-02-23T03:27:44;7.20;99.90
21612;DHT22;47005;52.292;13.452;2023-02-23T03:33:55;7.20;99.90
21612;DHT22;47005;52.292;13.452;2023-02-23T03:36:47;7.20;99.90
21612;DHT22;47005;52.292;13.452;2023-02-23T03:39:39;7.20;99.90
21612;DHT22;47005;52.292;13.452;2023-02-23T03:42:27;7.20;99.90
21612;DHT22;47005;52.292;13.452;2023-02-23T03:45:17;7.20;99.90
21612;DHT22;47005;52.292;13.452;2023-02-23T03:48:02;7.10;99.90
21612;DHT22;47005;52.292;13.452;2023-02-23T03:50:51;7.10;99.90
21612;DHT22;47005;52.292;13.452;2023-02-23T03:54:05;7.10;99.90
21612;DHT22;47005;52.292;13.452;2023-02-23T03:56:53;7.10;99.90
21612;DHT22;47005;52.292;13.452;2023-02-23T03:59:45;7.10;99.90
21612;DHT22;47005;52.292;13.452;2023-02-23T04:02:33;7.10;99.90
21612;DHT22;47005;52.292;13.452;2023-02-23T04:05:19;7.00;99.90
21612;DHT22;47005;52.292;13.452;2023-02-23T04:08:08;7.00;99.90
21612;DHT22;47005;52.292;13.452;2023-02-23T04:11:01;7.10;99.90
21612;DHT22;47005;52.292;13.452;2023-02-23T04:13:50;7.10;99.90
21612;DHT22;47005;52.292;13.452;2023-02-23T04:16:19;7.00;99.90
21612;DHT22;47005;52.292;13.452;2023-02-23T04:18:45;7.00;99.90
21612;DHT22;47005;52.292;13.452;2023-02-23T04:21:10;7.00;99.90
21612;DHT22;47005;52.292;13.452;2023-02-23T04:23:37;7.00;99.90
21612;DHT22;47005;52.292;13.452;2023-02-23T04:26:05;6.90;99.90
21612;DHT22;47005;52.292;13.452;2023-02-23T04:28:30;6.90;99.90
21612;DHT22;47005;52.292;13.452;2023-02-23T04:30:56;6.90;99.90
21612;DHT22;47005;52.292;13.452;2023-02-23T04:33:22;6.90;99.90
21612;DHT22;47005;52.292;13.452;2023-02-23T04:35:51;6.90;99.90
21612;DHT22;47005;52.292;13.452;2023-02-23T04:38:18;6.90;99.90
21612;DHT22;47005;52.292;13.452;2023-02-23T04:40:44;6.90;99.90
21612;DHT22;47005;52.292;13.452;2023-02-23T04:43:11;6.90;99.90
21612;DHT22;47005;52.292;13.452;2023-02-23T04:45:37;6.80;99.90
21612;DHT22;47005;52.292;13.452;2023-02-23T04:48:03;6.80;99.90
21612;DHT22;47005;52.292;13.452;2023-02-23T04:50:28;6.80;99.90
21612;DHT22;47005;52.292;13.452;2023-02-23T04:52:54;6.80;99.90
21612;DHT22;47005;52.292;13.452;2023-02-23T04:55:23;6.80;99.90
21612;DHT22;47005;52.292;13.452;2023-02-23T04:57:49;6.80;99.90
21612;DHT22;47005;52.292;13.452;2023-02-23T05:00:16;6.80;99.90
21612;DHT22;47005;52.292;13.452;2023-02-23T05:02:42;6.80;99.90
21612;DHT22;47005;52.292;13.452;2023-02-23T05:05:08;6.80;99.90
21612;DHT22;47005;52.292;13.452;2023-02-23T05:07:34;6.70;99.90
21612;DHT22;47005;52.292;13.452;2023-02-23T05:10:00;6.70;99.90
21612;DHT22;47005;52.292;13.452;2023-02-23T05:12:26;6.70;99.90
21612;DHT22;47005;52.292;13.452;2023-02-23T05:14:51;6.70;99.90
21612;DHT22;47005;52.292;13.452;2023-02-23T05:17:17;6.70;99.90
21612;DHT22;47005;52.292;13.452;2023-02-23T05:19:43;6.70;99.90
21612;DHT22;47005;52.292;13.452;2023-02-23T05:22:08;6.70;99.90
21612;DHT22;47005;52.292;13.452;2023-02-23T05:24:40;6.70;99.90
21612;DHT22;47005;52.292;13.452;2023-02-23T05:27:10;6.70;99.90
21612;DHT22;47005;52.292;13.452;2023-02-23T05:29:38;6.70;99.90
21612;DHT22;47005;52.292;13.452;2023-02-23T05:32:04;6.70;99.90
21612;DHT22;47005;52.292;13.452;2023-02-23T05:34:29;6.70;99.90
21612;DHT22;47005;52.292;13.452;2023-02-23T05:36:55;6.60;99.90
21612;DHT22;47005;52.292;13.452;2023-02-23T05:39:21;6.60;99.90
21612;DHT22;47005;52.292;13.452;2023-02-23T05:41:46;6.60;99.90
21612;DHT22;47005;52.292;13.452;2023-02-23T05:44:12;6.60;99.90
21612;DHT22;47005;52.292;13.452;2023-02-23T05:46:38;6.60;99.90
21612;DHT22;47005;52.292;13.452;2023-02-23T05:49:03;6.60;99.90
21612;DHT22;47005;52.292;13.452;2023-02-23T05:51:31;6.60;99.90
21612;DHT22;47005;52.292;13.452;2023-02-23T05:53:57;6.50;99.90
21612;DHT22;47005;52.292;13.452;2023-02-23T05:56:23;6.50;99.90
21612;DHT22;47005;52.292;13.452;2023-02-23T05:58:58;6.50;99.90
21612;DHT22;47005;52.292;13.452;2023-02-23T06:01:26;6.50;99.90
21612;DHT22;47005;52.292;13.452;2023-02-23T06:03:51;6.50;99.90
21612;DHT22;47005;52.292;13.452;2023-02-23T06:06:17;6.50;99.90
21612;DHT22;47005;52.292;13.452;2023-02-23T06:08:43;6.50;99.90
21612;DHT22;47005;52.292;13.452;2023-02-23T06:11:09;6.50;99.90
21612;DHT22;47005;52.292;13.452;2023-02-23T06:13:35;6.40;99.90
21612;DHT22;47005;52.292;13.452;2023-02-23T06:16:01;6.50;99.90
21612;DHT22;47005;52.292;13.452;2023-02-23T06:18:27;6.40;99.90
21612;DHT22;47005;52.292;13.452;2023-02-23T06:20:54;6.40;99.90
21612;DHT22;47005;52.292;13.452;2023-02-23T06:23:19;6.40;99.90
21612;DHT22;47005;52.292;13.452;2023-02-23T06:25:46;6.40;99.90
21612;DHT22;47005;52.292;13.452;2023-02-23T06:28:12;6.40;99.90
21612;DHT22;47005;52.292;13.452;2023-02-23T06:30:38;6.40;99.90
21612;DHT22;47005;52.292;13.452;2023-02-23T06:33:05;6.40;99.90
21612;DHT22;47005;52.292;13.452;2023-02-23T06:35:31;6.40;99.90
21612;DHT22;47005;52.292;13.452;2023-02-23T06:37:57;6.40;99.90
21612;DHT22;47005;52.292;13.452;2023-02-23T06:40:23;6.40;99.90
21612;DHT22;47005;52.292;13.452;2023-02-23T06:42:48;6.40;99.90
21612;DHT22;47005;52.292;13.452;2023-02-23T06:45:15;6.40;99.90
21612;DHT22;47005;52.292;13.452;2023-02-23T06:47:40;6.40;99.90
21612;DHT22;47005;52.292;13.452;2023-02-23T06:50:07;6.40;99.90
21612;DHT22;47005;52.292;13.452;2023-02-23T06:52:33;6.40;99.90
21612;DHT22;47005;52.292;13.452;2023-02-23T06:54:59;6.40;99.90
21612;DHT22;47005;52.292;13.452;2023-02-23T06:57:24;6.40;99.90
21612;DHT22;47005;52.292;13.452;2023-02-23T06:59:50;6.40;99.90
21612;DHT22;47005;52.292;13.452;2023-02-23T07:02:16;6.50;99.90
21612;DHT22;47005;52.292;13.452;2023-02-23T07:04:42;6.50;99.90
21612;DHT22;47005;52.292;13.452;2023-02-23T07:07:08;6.40;99.90
21612;DHT22;47005;52.292;13.452;2023-02-23T07:09:33;6.50;99.90
21612;DHT22;47005;52.292;13.452;2023-02-23T07:11:59;6.50;99.90
21612;DHT22;47005;52.292;13.452;2023-02-23T07:14:25;6.50;99.90
21612;DHT22;47005;52.292;13.452;2023-02-23T07:16:51;6.50;99.90
21612;DHT22;47005;52.292;13.452;2023-02-23T07:19:16;6.50;99.90
21612;DHT22;47005;52.292;13.452;2023-02-23T07:21:42;6.60;99.90
21612;DHT22;47005;52.292;13.452;2023-02-23T07:24:08;6.60;99.90
21612;DHT22;47005;52.292;13.452;2023-02-23T07:26:34;6.60;99.90
21612;DHT22;47005;52.292;13.452;2023-02-23T07:29:00;6.60;99.90
21612;DHT22;47005;52.292;13.452;2023-02-23T07:31:26;6.60;99.90
21612;DHT22;47005;52.292;13.452;2023-02-23T07:33:52;6.60;99.90
21612;DHT22;47005;52.292;13.452;2023-02-23T07:36:22;6.70;99.90
21612;DHT22;47005;52.292;13.452;2023-02-23T07:38:49;6.70;99.90
21612;DHT22;47005;52.292;13.452;2023-02-23T07:41:14;6.70;99.90
21612;DHT22;47005;52.292;13.452;2023-02-23T07:43:40;6.70;99.90
21612;DHT22;47005;52.292;13.452;2023-02-23T07:46:06;6.70;99.90
21612;DHT22;47005;52.292;13.452;2023-02-23T07:48:33;6.70;99.90
21612;DHT22;47005;52.292;13.452;2023-02-23T07:50:58;6.80;99.90
21612;DHT22;47005;52.292;13.452;2023-02-23T07:53:24;6.80;99.90
21612;DHT22;47005;52.292;13.452;2023-02-23T07:55:59;6.80;99.90
21612;DHT22;47005;52.292;13.452;2023-02-23T07:58:26;6.80;99.90
21612;DHT22;47005;52.292;13.452;2023-02-23T08:00:52;6.80;99.90
21612;DHT22;47005;52.292;13.452;2023-02-23T08:03:17;6.80;99.90
21612;DHT22;47005;52.292;13.452;2023-02-23T08:05:43;6.90;99.90
21612;DHT22;47005;52.292;13.452;2023-02-23T08:08:09;6.90;99.90
21612;DHT22;47005;52.292;13.452;2023-02-23T08:10:35;6.90;99.90
21612;DHT22;47005;52.292;13.452;2023-02-23T08:13:02;6.90;99.90
21612;DHT22;47005;52.292;13.452;2023-02-23T08:15:28;6.90;99.90
21612;DHT22;47005;52.292;13.452;2023-02-23T08:17:54;7.00;99.90
21612;DHT22;47005;52.292;13.452;2023-02-23T08:20:19;7.00;99.90
21612;DHT22;47005;52.292;13.452;2023-02-23T08:22:45;7.00;99.90
21612;DHT22;47005;52.292;13.452;2023-02-23T08:25:11;7.00;99.90
21612;DHT22;47005;52.292;13.452;2023-02-23T08:27:37;7.00;99.90
21612;DHT22;47005;52.292;13.452;2023-02-23T08:30:04;7.10;99.90
21612;DHT22;47005;52.292;13.452;2023-02-23T08:32:34;7.10;99.90
21612;DHT22;47005;52.292;13.452;2023-02-23T08:35:00;7.10;99.90
21612;DHT22;47005;52.292;13.452;2023-02-23T08:37:28;7.10;99.90
21612;DHT22;47005;52.292;13.452;2023-02-23T08:39:54;7.10;99.90
21612;DHT22;47005;52.292;13.452;2023-02-23T08:42:20;7.20;99.90
21612;DHT22;47005;52.292;13.452;2023-02-23T08:44:45;7.20;99.90
21612;DHT22;47005;52.292;13.452;2023-02-23T08:47:14;7.20;99.90
21612;DHT22;47005;52.292;13.452;2023-02-23T08:49:41;7.30;99.90
21612;DHT22;47005;52.292;13.452;2023-02-23T08:52:06;7.30;99.90
21612;DHT22;47005;52.292;13.452;2023-02-23T08:54:32;7.30;99.90
21612;DHT22;47005;52.292;13.452;2023-02-23T08:56:57;7.40;99.90
21612;DHT22;47005;52.292;13.452;2023-02-23T08:59:23;7.40;99.90
21612;DHT22;47005;52.292;13.452;2023-02-23T09:01:50;7.40;99.90
21612;DHT22;47005;52.292;13.452;2023-02-23T09:04:16;7.50;99.90
21612;DHT22;47005;52.292;13.452;2023-02-23T09:06:43;7.50;99.90
21612;DHT22;47005;52.292;13.452;2023-02-23T09:09:08;7.60;99.90
21612;DHT22;47005;52.292;13.452;2023-02-23T09:11:34;7.60;99.90
21612;DHT22;47005;52.292;13.452;2023-02-23T09:14:00;7.60;99.90
21612;DHT22;47005;52.292;13.452;2023-02-23T09:16:25;7.60;99.90
21612;DHT22;47005;52.292;13.452;2023-02-23T09:18:51;7.70;99.90
21612;DHT22;47005;52.292;13.452;2023-02-23T09:21:19;7.70;99.90
21612;DHT22;47005;52.292;13.452;2023-02-23T09:23:47;7.70;99.90
21612;DHT22;47005;52.292;13.452;2023-02-23T09:26:15;7.80;99.90
21612;DHT22;47005;52.292;13.452;2023-02-23T09:28:43;7.80;99.90
21612;DHT22;47005;52.292;13.452;2023-02-23T09:31:14;7.80;99.90
21612;DHT22;47005;52.292;13.452;2023-02-23T09:33:41;7.90;99.90
21612;DHT22;47005;52.292;13.452;2023-02-23T09:36:08;8.00;99.90
21612;DHT22;47005;52.292;13.452;2023-02-23T09:38:38;8.00;99.90
21612;DHT22;47005;52.292;13.452;2023-02-23T09:41:07;8.00;99.90
21612;DHT22;47005;52.292;13.452;2023-02-23T09:43:50;8.00;99.90
21612;DHT22;47005;52.292;13.452;2023-02-23T09:46:56;8.10;99.90
21612;DHT22;47005;52.292;13.452;2023-02-23T09:49:28;8.10;99.90
21612;DHT22;47005;52.292;13.452;2023-02-23T09:51:58;8.10;99.90
21612;DHT22;47005;52.292;13.452;2023-02-23T09:54:28;8.20;99.90
21612;DHT22;47005;52.292;13.452;2023-02-23T09:56:54;8.20;99.90
21612;DHT22;47005;52.292;13.452;2023-02-23T09:59:23;8.20;99.90
21612;DHT22;47005;52.292;13.452;2023-02-23T10:15:37;8.40;99.90
21612;DHT22;47005;52.292;13.452;2023-02-23T10:20:52;8.40;99.90
21612;DHT22;47005;52.292;13.452;2023-02-23T10:23:43;8.40;99.90
21612;DHT22;47005;52.292;13.452;2023-02-23T10:26:16;8.50;99.90
21612;DHT22;47005;52.292;13.452;2023-02-23T10:28:42;8.50;99.90
21612;DHT22;47005;52.292;13.452;2023-02-23T10:33:50;8.60;99.90
21612;DHT22;47005;52.292;13.452;2023-02-23T10:36:22;8.70;99.90
21612;DHT22;47005;52.292;13.452;2023-02-23T10:38:50;8.70;99.90
21612;DHT22;47005;52.292;13.452;2023-02-23T10:41:16;8.70;99.90
21612;DHT22;47005;52.292;13.452;2023-02-23T10:43:41;8.80;99.90
21612;DHT22;47005;52.292;13.452;2023-02-23T10:46:16;8.80;99.90
21612;DHT22;47005;52.292;13.452;2023-02-23T10:48:43;8.90;99.90
21612;DHT22;47005;52.292;13.452;2023-02-23T10:51:24;8.90;99.90
21612;DHT22;47005;52.292;13.452;2023-02-23T10:53:52;8.90;99.90
21612;DHT22;47005;52.292;13.452;2023-02-23T10:56:18;9.00;99.90
21612;DHT22;47005;52.292;13.452;2023-02-23T10:58:53;9.10;99.90
21612;DHT22;47005;52.292;13.452;2023-02-23T11:01:40;9.10;99.90
21612;DHT22;47005;52.292;13.452;2023-02-23T11:04:22;9.10;99.90
21612;DHT22;47005;52.292;13.452;2023-02-23T11:06:49;9.20;99.90
21612;DHT22;47005;52.292;13.452;2023-02-23T11:09:26;9.20;99.90
21612;DHT22;47005;52.292;13.452;2023-02-23T11:12:03;9.30;99.90
21612;DHT22;47005;52.292;13.452;2023-02-23T11:14:31;9.30;99.90
21612;DHT22;47005;52.292;13.452;2023-02-23T11:16:58;9.40;99.90
21612;DHT22;47005;52.292;13.452;2023-02-23T11:19:35;9.40;99.90
21612;DHT22;47005;52.292;13.452;2023-02-23T11:22:03;9.40;99.90
21612;DHT22;47005;52.292;13.452;2023-02-23T11:24:38;9.50;99.90
21612;DHT22;47005;52.292;13.452;2023-02-23T11:27:06;9.50;99.90
21612;DHT22;47005;52.292;13.452;2023-02-23T11:29:44;9.60;99.90
21612;DHT22;47005;52.292;13.452;2023-02-23T11:32:35;9.60;99.90
21612;DHT22;47005;52.292;13.452;2023-02-23T11:37:47;9.70;99.90
21612;DHT22;47005;52.292;13.452;2023-02-23T11:40:27;9.80;99.90
21612;DHT22;47005;52.292;13.452;2023-02-23T11:45:44;9.90;99.90
21612;DHT22;47005;52.292;13.452;2023-02-23T11:50:48;10.00;99.90
21612;DHT22;47005;52.292;13.452;2023-02-23T11:53:17;10.00;99.90
21612;DHT22;47005;52.292;13.452;2023-02-23T11:55:51;10.00;99.90
21612;DHT22;47005;52.292;13.452;2023-02-23T11:58:45;10.10;99.90
21612;DHT22;47005;52.292;13.452;2023-02-23T12:01:14;10.10;99.90
21612;DHT22;47005;52.292;13.452;2023-02-23T12:03:48;10.20;99.90
21612;DHT22;47005;52.292;13.452;2023-02-23T12:06:28;10.20;99.90
21612;DHT22;47005;52.292;13.452;2023-02-23T12:09:00;10.20;99.90
21612;DHT22;47005;52.292;13.452;2023-02-23T12:11:33;10.20;99.90
21612;DHT22;47005;52.292;13.452;2023-02-23T12:14:12;10.30;99.90
21612;DHT22;47005;52.292;13.452;2023-02-23T12:16:49;10.30;99.90
21612;DHT22;47005;52.292;13.452;2023-02-23T12:21:59;10.30;99.90
21612;DHT22;47005;52.292;13.452;2023-02-23T12:27:03;10.40;99.90
21612;DHT22;47005;52.292;13.452;2023-02-23T12:29:47;10.40;99.90
21612;DHT22;47005;52.292;13.452;2023-02-23T12:32:26;10.50;99.90
21612;DHT22;47005;52.292;13.452;2023-02-23T12:35:03;10.50;99.90
21612;DHT22;47005;52.292;13.452;2023-02-23T12:37:40;10.50;99.90
21612;DHT22;47005;52.292;13.452;2023-02-23T12:40:17;10.60;99.90
21612;DHT22;47005;52.292;13.452;2023-02-23T12:45:28;10.60;99.90
21612;DHT22;47005;52.292;13.452;2023-02-23T12:48:05;10.70;99.90
21612;DHT22;47005;52.292;13.452;2023-02-23T12:50:41;10.70;99.90
21612;DHT22;47005;52.292;13.452;2023-02-23T12:58:37;10.80;99.90
21612;DHT22;47005;52.292;13.452;2023-02-23T13:01:26;10.80;99.90
21612;DHT22;47005;52.292;13.452;2023-02-23T13:04:00;10.80;99.90
21612;DHT22;47005;52.292;13.452;2023-02-23T13:09:44;10.90;99.90
21612;DHT22;47005;52.292;13.452;2023-02-23T13:20:03;10.90;99.90
21612;DHT22;47005;52.292;13.452;2023-02-23T13:22:53;10.90;99.90
21612;DHT22;47005;52.292;13.452;2023-02-23T13:28:34;11.00;99.90
21612;DHT22;47005;52.292;13.452;2023-02-23T13:31:01;11.00;99.90
21612;DHT22;47005;52.292;13.452;2023-02-23T13:33:28;11.00;99.90
21612;DHT22;47005;52.292;13.452;2023-02-23T13:36:02;11.00;99.90
21612;DHT22;47005;52.292;13.452;2023-02-23T13:46:44;11.10;99.90
21612;DHT22;47005;52.292;13.452;2023-02-23T13:51:59;11.10;99.90
21612;DHT22;47005;52.292;13.452;2023-02-23T13:54:34;11.10;99.90
21612;DHT22;47005;52.292;13.452;2023-02-23T13:57:12;11.10;99.90
21612;DHT22;47005;52.292;13.452;2023-02-23T13:59:42;11.10;99.90
21612;DHT22;47005;52.292;13.452;2023-02-23T14:07:46;11.20;99.90
21612;DHT22;47005;52.292;13.452;2023-02-23T14:10:19;11.20;99.90
21612;DHT22;47005;52.292;13.452;2023-02-23T14:21:02;11.20;99.90
21612;DHT22;47005;52.292;13.452;2023-02-23T14:23:34;11.20;99.90
21612;DHT22;47005;52.292;13.452;2023-02-23T14:26:34;11.20;99.90
21612;DHT22;47005;52.292;13.452;2023-02-23T14:37:39;11.20;99.90
21612;DHT22;47005;52.292;13.452;2023-02-23T14:40:15;11.20;99.90
21612;DHT22;47005;52.292;13.452;2023-02-23T14:42:46;11.20;99.90
21612;DHT22;47005;52.292;13.452;2023-02-23T14:45:20;11.20;99.90
21612;DHT22;47005;52.292;13.452;2023-02-23T14:47:52;11.20;99.90
21612;DHT22;47005;52.292;13.452;2023-02-23T14:50:31;11.20;99.90
21612;DHT22;47005;52.292;13.452;2023-02-23T14:52:57;11.20;99.90
21612;DHT22;47005;52.292;13.452;2023-02-23T14:55:31;11.20;99.90
21612;DHT22;47005;52.292;13.452;2023-02-23T14:58:16;11.20;99.90
21612;DHT22;47005;52.292;13.452;2023-02-23T15:00:45;11.20;99.90
21612;DHT22;47005;52.292;13.452;2023-02-23T15:03:13;11.20;99.90
21612;DHT22;47005;52.292;13.452;2023-02-23T15:05:44;11.20;99.90
21612;DHT22;47005;52.292;13.452;2023-02-23T15:08:16;11.20;99.90
21612;DHT22;47005;52.292;13.452;2023-02-23T15:10:45;11.20;99.90
21612;DHT22;47005;52.292;13.452;2023-02-23T15:13:28;11.20;99.90
21612;DHT22;47005;52.292;13.452;2023-02-23T15:15:55;11.20;99.90
21612;DHT22;47005;52.292;13.452;2023-02-23T15:18:30;11.20;99.90
21612;DHT22;47005;52.292;13.452;2023-02-23T15:20:57;11.20;99.90
21612;DHT22;47005;52.292;13.452;2023-02-23T15:23:23;11.20;99.90
21612;DHT22;47005;52.292;13.452;2023-02-23T15:25:49;11.20;99.90
21612;DHT22;47005;52.292;13.452;2023-02-23T15:28:27;11.10;99.90
21612;DHT22;47005;52.292;13.452;2023-02-23T15:30:55;11.10;99.90
21612;DHT22;47005;52.292;13.452;2023-02-23T15:33:21;11.10;99.90
21612;DHT22;47005;52.292;13.452;2023-02-23T15:36:25;11.10;99.90
21612;DHT22;47005;52.292;13.452;2023-02-23T15:38:54;11.00;99.90
21612;DHT22;47005;52.292;13.452;2023-02-23T15:41:34;11.00;99.90
21612;DHT22;47005;52.292;13.452;2023-02-23T15:44:24;11.00;99.90
21612;DHT22;47005;52.292;13.452;2023-02-23T15:46:59;11.00;99.90
21612;DHT22;47005;52.292;13.452;2023-02-23T15:49:29;11.00;99.90
21612;DHT22;47005;52.292;13.452;2023-02-23T15:52:02;11.00;99.90
21612;DHT22;47005;52.292;13.452;2023-02-23T15:54:36;11.00;99.90
21612;DHT22;47005;52.292;13.452;2023-02-23T15:57:13;10.90;99.90
21612;DHT22;47005;52.292;13.452;2023-02-23T15:59:45;10.90;99.90
21612;DHT22;47005;52.292;13.452;2023-02-23T16:02:23;10.90;99.90
21612;DHT22;47005;52.292;13.452;2023-02-23T16:04:49;10.90;99.90
21612;DHT22;47005;52.292;13.452;2023-02-23T16:07:23;10.80;99.90
21612;DHT22;47005;52.292;13.452;2023-02-23T16:09:53;10.80;99.90
21612;DHT22;47005;52.292;13.452;2023-02-23T16:12:22;10.80;99.90
21612;DHT22;47005;52.292;13.452;2023-02-23T16:14:54;10.80;99.90
21612;DHT22;47005;52.292;13.452;2023-02-23T16:17:44;10.80;99.90
21612;DHT22;47005;52.292;13.452;2023-02-23T16:23:03;10.70;99.90
21612;DHT22;47005;52.292;13.452;2023-02-23T16:25:31;10.70;99.90
21612;DHT22;47005;52.292;13.452;2023-02-23T16:28:07;10.70;99.90
21612;DHT22;47005;52.292;13.452;2023-02-23T16:30:42;10.70;99.90
21612;DHT22;47005;52.292;13.452;2023-02-23T16:36:17;10.70;99.90
21612;DHT22;47005;52.292;13.452;2023-02-23T16:39:03;10.70;99.90
21612;DHT22;47005;52.292;13.452;2023-02-23T16:41:33;10.70;99.90
21612;DHT22;47005;52.292;13.452;2023-02-23T16:44:02;10.70;99.90
21612;DHT22;47005;52.292;13.452;2023-02-23T16:46:32;10.70;99.90
21612;DHT22;47005;52.292;13.452;2023-02-23T16:49:02;10.60;99.90
21612;DHT22;47005;52.292;13.452;2023-02-23T16:51:35;10.60;99.90
21612;DHT22;47005;52.292;13.452;2023-02-23T16:54:00;10.70;99.90
21612;DHT22;47005;52.292;13.452;2023-02-23T16:56:28;10.60;99.90
21612;DHT22;47005;52.292;13.452;2023-02-23T16:58:59;10.60;99.90
21612;DHT22;47005;52.292;13.452;2023-02-23T17:01:25;10.60;99.90
21612;DHT22;47005;52.292;13.452;2023-02-23T17:03:51;10.60;99.90
21612;DHT22;47005;52.292;13.452;2023-02-23T17:06:21;10.60;99.90
21612;DHT22;47005;52.292;13.452;2023-02-23T17:08:46;10.60;99.90
21612;DHT22;47005;52.292;13.452;2023-02-23T17:11:12;10.60;99.90
21612;DHT22;47005;52.292;13.452;2023-02-23T17:13:38;10.60;99.90
21612;DHT22;47005;52.292;13.452;2023-02-23T17:16:06;10.60;99.90
21612;DHT22;47005;52.292;13.452;2023-02-23T17:18:37;10.60;99.90
21612;DHT22;47005;52.292;13.452;2023-02-23T17:21:07;10.60;99.90
21612;DHT22;47005;52.292;13.452;2023-02-23T17:23:36;10.60;99.90
21612;DHT22;47005;52.292;13.452;2023-02-23T17:26:21;10.60;99.90
21612;DHT22;47005;52.292;13.452;2023-02-23T17:28:47;10.60;99.90
21612;DHT22;47005;52.292;13.452;2023-02-23T17:31:15;10.50;99.90
21612;DHT22;47005;52.292;13.452;2023-02-23T17:33:41;10.50;99.90
21612;DHT22;47005;52.292;13.452;2023-02-23T17:36:11;10.50;99.90
21612;DHT22;47005;52.292;13.452;2023-02-23T17:38:38;10.60;99.90
21612;DHT22;47005;52.292;13.452;2023-02-23T17:41:15;10.50;99.90
21612;DHT22;47005;52.292;13.452;2023-02-23T17:43:42;10.50;99.90
21612;DHT22;47005;52.292;13.452;2023-02-23T17:46:08;10.50;99.90
21612;DHT22;47005;52.292;13.452;2023-02-23T17:48:33;10.50;99.90
21612;DHT22;47005;52.292;13.452;2023-02-23T17:51:05;10.50;99.90
21612;DHT22;47005;52.292;13.452;2023-02-23T17:53:31;10.50;99.90
21612;DHT22;47005;52.292;13.452;2023-02-23T17:55:57;10.50;99.90
21612;DHT22;47005;52.292;13.452;2023-02-23T17:58:23;10.50;99.90
21612;DHT22;47005;52.292;13.452;2023-02-23T18:00:54;10.50;99.90
21612;DHT22;47005;52.292;13.452;2023-02-23T18:03:20;10.50;99.90
21612;DHT22;47005;52.292;13.452;2023-02-23T18:05:45;10.50;99.90